Pierre Regional Airport Pierre US
ICAO: KPIR
IATA: PIR
Category: Medium
Scheduled Services: Yes

Elevation: 1744 ft
TransAlt. 18000 ft.

Airport Communications:
ASOS:119.025
MINNEAPOLIS CNTR:125.1
CTAF:122.7
HURON RDO:122.2
UNICOM:122.95

KPIR Zoom In..

Runways:

(A) RW 07 length 6881 ft width 150 ft
---- / hdg 69

(B) RW 13 length 6900 ft width 100 ft
---- / hdg 133

(C) RW 25 length 6881 ft width 150 ft
---- / hdg 249

(D) RW 31 length 6900 ft width 100 ft
ILS 111.90 / hdg 313

Location; KPIR
Day. 09 / Time. 22.53 Zulu
* Altimeter: 29.92
* Temperature: 29° c. 84.2°f.
* Wind from: 110° Speed 05 kn.
Dewpoint: 14° c.
Visibility: 10 Statute Miles.
Clouds: Clear (automated report).

KPIR 092253Z AUTO 11005KT 10SM CLR 29/14 A2992 RMK AO2 SLP118 T02890139

Going to: --> -->


Wind From 110°
Speed 05 kn.

 
 
jpsmedia worldairports.se 2020   terms of use